createdAt,value
2018-06-04T00:02:22.638Z,99.90
2018-06-04T00:04:51.208Z,99.90
2018-06-04T00:07:19.765Z,99.90
2018-06-04T00:09:48.342Z,99.90
2018-06-04T00:12:16.927Z,99.90
2018-06-04T00:14:45.504Z,99.90
2018-06-04T00:17:14.073Z,99.90
2018-06-04T00:19:42.662Z,99.90
2018-06-04T00:22:11.189Z,99.90
2018-06-04T00:24:39.733Z,99.90
2018-06-04T00:27:08.278Z,99.90
2018-06-04T00:29:36.872Z,99.90
2018-06-04T00:32:05.460Z,99.90
2018-06-04T00:34:34.005Z,99.90
2018-06-04T00:37:02.582Z,99.90
2018-06-04T00:39:31.105Z,99.90
2018-06-04T00:41:59.696Z,99.90
2018-06-04T00:44:28.241Z,99.90
2018-06-04T00:46:56.757Z,99.90
2018-06-04T00:49:25.299Z,99.90
2018-06-04T00:51:53.868Z,99.90
2018-06-04T00:54:22.461Z,99.90
2018-06-04T00:56:51.026Z,99.90
2018-06-04T00:59:19.568Z,99.90
2018-06-04T01:01:48.098Z,99.90
2018-06-04T01:04:16.647Z,99.90
2018-06-04T01:06:45.233Z,99.90
2018-06-04T01:09:13.761Z,99.90
2018-06-04T01:11:42.257Z,99.90
2018-06-04T01:14:10.826Z,99.90
2018-06-04T01:16:39.374Z,99.90
2018-06-04T01:19:08.009Z,99.90
2018-06-04T01:21:36.580Z,99.90
2018-06-04T01:24:05.113Z,99.90
2018-06-04T01:26:33.660Z,99.90
2018-06-04T01:29:02.151Z,99.90
2018-06-04T01:31:30.715Z,99.90
2018-06-04T01:33:59.255Z,99.90
2018-06-04T01:36:27.800Z,99.90
2018-06-04T01:38:56.344Z,99.90
2018-06-04T01:41:24.833Z,99.90
2018-06-04T01:43:53.401Z,99.90
2018-06-04T01:46:21.927Z,99.90
2018-06-04T01:48:50.416Z,99.90
2018-06-04T01:53:47.172Z,99.90
2018-06-04T01:56:15.742Z,99.90
2018-06-04T01:58:44.297Z,99.90
2018-06-04T02:01:12.824Z,99.90
2018-06-04T02:03:41.374Z,99.90
2018-06-04T02:06:09.906Z,99.90
2018-06-04T02:08:38.494Z,99.90
2018-06-04T02:11:07.097Z,99.90
2018-06-04T02:13:35.664Z,99.90
2018-06-04T02:16:04.224Z,99.90
2018-06-04T02:18:32.825Z,99.90
2018-06-04T02:21:01.348Z,99.90
2018-06-04T02:23:29.894Z,99.90
2018-06-04T02:25:58.447Z,99.90
2018-06-04T02:28:27.006Z,99.90
2018-06-04T02:30:55.570Z,99.90
2018-06-04T02:33:24.128Z,99.90
2018-06-04T02:35:52.681Z,99.90
2018-06-04T02:38:21.187Z,99.90
2018-06-04T02:40:49.708Z,99.90
2018-06-04T02:43:18.262Z,99.90
2018-06-04T02:45:46.843Z,99.90
2018-06-04T02:48:15.403Z,99.90
2018-06-04T02:53:12.154Z,99.90
2018-06-04T02:55:40.707Z,99.90
2018-06-04T02:58:09.249Z,99.90
2018-06-04T03:00:37.803Z,99.90
2018-06-04T03:03:06.360Z,99.90
2018-06-04T03:05:34.945Z,99.90
2018-06-04T03:08:03.519Z,99.90
2018-06-04T03:10:32.048Z,99.90
2018-06-04T03:13:00.601Z,99.90
2018-06-04T03:15:29.115Z,99.90
2018-06-04T03:17:57.702Z,99.90
2018-06-04T03:20:26.310Z,99.90
2018-06-04T03:22:54.924Z,99.90
2018-06-04T03:25:23.428Z,99.90
2018-06-04T03:27:51.992Z,99.90
2018-06-04T03:30:20.525Z,99.90
2018-06-04T03:32:49.036Z,99.90
2018-06-04T03:35:17.653Z,99.90
2018-06-04T03:37:46.213Z,99.90
2018-06-04T03:40:14.769Z,99.90
2018-06-04T03:42:43.264Z,99.90
2018-06-04T03:45:11.885Z,99.90
2018-06-04T03:47:40.402Z,99.90
2018-06-04T03:50:08.934Z,99.90
2018-06-04T03:52:37.503Z,99.90
2018-06-04T03:55:06.033Z,99.90
2018-06-04T03:57:34.632Z,99.90
2018-06-04T04:00:03.177Z,99.90
2018-06-04T04:02:31.690Z,99.90
2018-06-04T04:05:00.261Z,99.90
2018-06-04T04:07:28.801Z,99.90
2018-06-04T04:09:57.361Z,99.90
2018-06-04T04:12:25.905Z,99.90
2018-06-04T04:14:54.518Z,99.90
2018-06-04T04:17:23.100Z,99.90
2018-06-04T04:19:51.691Z,99.90
2018-06-04T04:22:20.269Z,99.90
2018-06-04T04:24:48.785Z,99.90
2018-06-04T04:27:17.349Z,99.90
2018-06-04T04:29:45.903Z,99.90
2018-06-04T04:32:14.409Z,99.90
2018-06-04T04:34:42.958Z,99.90
2018-06-04T04:37:11.486Z,99.90
2018-06-04T04:39:40.025Z,99.90
2018-06-04T04:42:08.566Z,99.90
2018-06-04T04:44:37.127Z,99.90
2018-06-04T04:47:05.740Z,99.90
2018-06-04T04:49:34.305Z,99.90
2018-06-04T04:52:02.850Z,99.90
2018-06-04T04:54:31.382Z,99.90
2018-06-04T04:56:59.922Z,99.90
2018-06-04T04:59:28.531Z,99.90
2018-06-04T05:01:57.052Z,99.90
2018-06-04T05:04:25.618Z,99.90
2018-06-04T05:06:54.207Z,99.90
2018-06-04T05:09:22.723Z,99.90
2018-06-04T05:11:51.263Z,99.90
2018-06-04T05:14:19.805Z,99.90
2018-06-04T05:16:48.376Z,99.90
2018-06-04T05:19:16.899Z,99.90
2018-06-04T05:21:45.430Z,99.90
2018-06-04T05:24:13.992Z,99.90
2018-06-04T05:26:42.536Z,99.90
2018-06-04T05:29:11.120Z,99.90
2018-06-04T05:31:39.649Z,99.90
2018-06-04T05:34:08.187Z,99.90
2018-06-04T05:36:36.788Z,99.90
2018-06-04T05:39:08.407Z,99.90
2018-06-04T05:41:36.976Z,99.90
2018-06-04T05:44:05.758Z,99.90
2018-06-04T05:46:34.279Z,99.90
2018-06-04T05:49:02.787Z,99.90
2018-06-04T05:51:31.356Z,99.90
2018-06-04T05:53:59.877Z,99.90
2018-06-04T05:56:28.462Z,99.90
2018-06-04T05:58:56.995Z,99.90
2018-06-04T06:01:25.557Z,99.90
2018-06-04T06:03:54.082Z,99.90
2018-06-04T06:06:22.607Z,99.90
2018-06-04T06:08:51.167Z,99.90
2018-06-04T06:11:19.720Z,99.90
2018-06-04T06:13:48.261Z,99.90
2018-06-04T06:16:16.813Z,99.90
2018-06-04T06:18:45.349Z,99.90
2018-06-04T06:21:13.940Z,99.90
2018-06-04T06:23:42.489Z,99.90
2018-06-04T06:26:11.068Z,99.90
2018-06-04T06:28:39.664Z,99.90
2018-06-04T06:31:08.243Z,99.90
2018-06-04T06:33:36.782Z,99.90
2018-06-04T06:36:05.376Z,99.90
2018-06-04T06:38:33.877Z,99.90
2018-06-04T06:41:02.454Z,99.90
2018-06-04T06:43:31.027Z,99.90
2018-06-04T06:45:59.564Z,99.90
2018-06-04T06:48:28.089Z,99.90
2018-06-04T06:50:56.664Z,99.90
2018-06-04T06:53:25.203Z,99.90
2018-06-04T06:55:53.775Z,99.90
2018-06-04T06:58:22.307Z,99.90
2018-06-04T07:00:50.991Z,99.90
2018-06-04T07:03:19.692Z,99.90
2018-06-04T07:05:48.188Z,99.90
2018-06-04T07:08:16.731Z,99.90
2018-06-04T07:10:45.248Z,99.90
2018-06-04T07:13:13.768Z,99.90
2018-06-04T07:15:42.329Z,99.90
2018-06-04T07:18:10.883Z,99.90
2018-06-04T07:20:39.459Z,99.90
2018-06-04T07:23:07.976Z,99.90
2018-06-04T07:25:36.656Z,99.90
2018-06-04T07:28:05.283Z,99.90
2018-06-04T07:30:33.826Z,99.90
2018-06-04T07:33:02.368Z,99.90
2018-06-04T07:35:30.957Z,99.90
2018-06-04T07:37:59.462Z,99.90
2018-06-04T07:40:28.003Z,99.90
2018-06-04T07:42:56.566Z,99.90
2018-06-04T07:45:25.124Z,99.90
2018-06-04T07:47:53.708Z,99.90
2018-06-04T07:50:22.217Z,99.90
2018-06-04T07:52:50.800Z,99.90
2018-06-04T07:55:19.309Z,99.90
2018-06-04T07:57:47.823Z,99.40
2018-06-04T08:00:16.432Z,99.70
2018-06-04T08:02:45.027Z,99.90
2018-06-04T08:05:13.577Z,98.50
2018-06-04T08:07:42.090Z,98.90
2018-06-04T08:10:10.718Z,99.20
2018-06-04T08:12:39.246Z,98.00
2018-06-04T08:15:07.817Z,98.80
2018-06-04T08:17:36.352Z,98.20
2018-06-04T08:20:04.996Z,97.50
2018-06-04T08:22:33.585Z,96.70
2018-06-04T08:25:02.143Z,96.60
2018-06-04T08:27:30.695Z,95.80
2018-06-04T08:29:59.265Z,93.80
2018-06-04T08:32:27.827Z,94.30
2018-06-04T08:34:56.386Z,90.10
2018-06-04T08:37:24.968Z,92.80
2018-06-04T08:39:53.527Z,93.20
2018-06-04T08:42:22.090Z,90.20
2018-06-04T08:44:50.658Z,90.80
2018-06-04T08:47:19.204Z,92.40
2018-06-04T08:49:47.769Z,92.40
2018-06-04T08:54:44.554Z,91.90
2018-06-04T08:57:13.116Z,91.90
2018-06-04T08:59:41.624Z,91.70
2018-06-04T09:02:10.182Z,89.10
2018-06-04T09:04:38.712Z,90.70
2018-06-04T09:07:07.305Z,89.90
2018-06-04T09:09:35.833Z,89.20
2018-06-04T09:12:04.448Z,91.30
2018-06-04T09:14:32.999Z,88.10
2018-06-04T09:17:01.592Z,89.60
2018-06-04T09:19:30.179Z,90.00
2018-06-04T09:21:58.787Z,88.60
2018-06-04T09:24:27.365Z,88.80
2018-06-04T09:26:55.920Z,86.80
2018-06-04T09:29:24.467Z,82.60
2018-06-04T09:31:53.090Z,81.00
2018-06-04T09:34:21.627Z,84.40
2018-06-04T09:36:50.171Z,81.30
2018-06-04T09:39:18.783Z,87.90
2018-06-04T09:41:47.335Z,84.20
2018-06-04T09:44:15.987Z,78.90
2018-06-04T09:46:44.569Z,79.50
2018-06-04T09:49:13.239Z,73.70
2018-06-04T09:51:41.806Z,74.70
2018-06-04T09:54:10.442Z,76.40
2018-06-04T09:56:38.918Z,71.90
2018-06-04T09:59:07.461Z,71.40
2018-06-04T10:01:35.997Z,74.80
2018-06-04T10:04:04.560Z,75.60
2018-06-04T10:06:33.066Z,71.20
2018-06-04T10:09:01.638Z,66.50
2018-06-04T10:11:30.190Z,71.70
2018-06-04T10:13:58.775Z,71.40
2018-06-04T10:16:27.328Z,67.00
2018-06-04T10:18:55.953Z,68.20
2018-06-04T10:21:24.576Z,65.60
2018-06-04T10:23:53.129Z,69.20
2018-06-04T10:26:21.682Z,62.20
2018-06-04T10:28:50.265Z,67.30
2018-06-04T10:31:18.814Z,63.60
2018-06-04T10:33:47.346Z,64.20
2018-06-04T10:36:15.905Z,63.20
2018-06-04T10:38:44.461Z,62.50
2018-06-04T10:41:13.065Z,61.90
2018-06-04T10:43:41.643Z,61.60
2018-06-04T10:46:10.212Z,60.50
2018-06-04T10:48:38.833Z,62.50
2018-06-04T10:51:07.394Z,62.20
2018-06-04T10:53:35.948Z,65.70
2018-06-04T10:56:04.485Z,61.20
2018-06-04T10:58:33.158Z,59.90
2018-06-04T11:01:01.717Z,58.50
2018-06-04T11:03:30.276Z,61.00
2018-06-04T11:05:58.805Z,63.10
2018-06-04T11:08:27.354Z,59.70
2018-06-04T11:10:55.897Z,62.10
2018-06-04T11:15:52.594Z,57.00
2018-06-04T11:18:21.167Z,60.50
2018-06-04T11:20:49.727Z,59.90
2018-06-04T11:23:18.224Z,59.50
2018-06-04T11:25:46.874Z,59.20
2018-06-04T11:28:15.413Z,60.10
2018-06-04T11:30:43.960Z,58.50
2018-06-04T11:33:12.517Z,60.70
2018-06-04T11:35:41.060Z,62.60
2018-06-04T11:38:09.721Z,61.90
2018-06-04T11:40:38.711Z,58.10
2018-06-04T11:43:07.426Z,59.70
2018-06-04T11:45:36.081Z,58.90
2018-06-04T11:50:32.884Z,62.00
2018-06-04T11:53:01.465Z,62.10
2018-06-04T11:55:30.055Z,61.90
2018-06-04T11:57:58.609Z,58.60
2018-06-04T12:00:27.155Z,58.10
2018-06-04T12:05:23.885Z,60.10
2018-06-04T12:07:52.440Z,58.30
2018-06-04T12:10:21.026Z,58.40
2018-06-04T12:12:49.581Z,59.80
2018-06-04T12:15:18.192Z,57.80
2018-06-04T12:17:46.769Z,59.30
2018-06-04T12:20:15.319Z,56.90
2018-06-04T12:22:43.853Z,59.00
2018-06-04T12:25:12.383Z,58.60
2018-06-04T12:27:40.915Z,60.60
2018-06-04T12:30:09.499Z,58.20
2018-06-04T12:32:38.059Z,59.10
2018-06-04T12:35:06.620Z,56.20
2018-06-04T12:37:35.220Z,55.90
2018-06-04T12:40:03.826Z,57.90
2018-06-04T12:42:32.405Z,59.30
2018-06-04T12:45:00.986Z,57.10
2018-06-04T12:47:29.586Z,56.80
2018-06-04T12:49:58.158Z,53.90
2018-06-04T12:52:26.711Z,55.90
2018-06-04T12:54:55.302Z,54.70
2018-06-04T12:57:23.858Z,55.60
2018-06-04T12:59:52.549Z,57.00
2018-06-04T13:02:24.130Z,57.10
2018-06-04T13:04:53.022Z,57.40
2018-06-04T13:09:49.734Z,57.80
2018-06-04T13:12:18.313Z,56.10
2018-06-04T13:14:46.909Z,53.80
2018-06-04T13:17:15.484Z,54.90
2018-06-04T13:19:44.011Z,57.00
2018-06-04T13:22:12.611Z,56.60
2018-06-04T13:24:41.168Z,57.10
2018-06-04T13:27:09.762Z,57.40
2018-06-04T13:29:38.323Z,55.10
2018-06-04T13:32:06.859Z,57.80
2018-06-04T13:34:35.428Z,54.70
2018-06-04T13:37:03.982Z,58.70
2018-06-04T13:39:32.639Z,56.20
2018-06-04T13:42:01.159Z,58.10
2018-06-04T13:44:29.737Z,54.00
2018-06-04T13:46:58.281Z,55.40
2018-06-04T13:51:55.696Z,54.50
2018-06-04T13:54:24.258Z,53.50
2018-06-04T13:56:52.824Z,56.10
2018-06-04T13:59:21.404Z,55.30
2018-06-04T14:01:50.735Z,53.40
2018-06-04T14:04:19.278Z,54.20
2018-06-04T14:06:47.859Z,56.30
2018-06-04T14:09:16.399Z,56.20
2018-06-04T14:11:44.977Z,53.30
2018-06-04T14:14:13.561Z,54.30
2018-06-04T14:16:42.196Z,53.60
2018-06-04T14:19:10.820Z,52.50
2018-06-04T14:21:39.439Z,55.50
2018-06-04T14:24:07.953Z,52.80
2018-06-04T14:26:36.527Z,55.60
2018-06-04T14:29:05.105Z,56.80
2018-06-04T14:31:33.655Z,57.10
2018-06-04T14:34:02.435Z,55.10
2018-06-04T14:36:33.286Z,51.10
2018-06-04T14:39:01.900Z,52.60
2018-06-04T14:41:31.388Z,53.60
2018-06-04T14:44:00.295Z,53.30
2018-06-04T14:46:28.861Z,52.80
2018-06-04T14:48:58.943Z,53.70
2018-06-04T14:51:27.496Z,53.40
2018-06-04T14:53:56.064Z,53.90
2018-06-04T14:56:24.663Z,55.00
2018-06-04T15:01:22.066Z,55.70
2018-06-04T15:03:50.834Z,56.80
2018-06-04T15:06:19.410Z,54.30
2018-06-04T15:08:48.042Z,54.20
2018-06-04T15:11:16.968Z,54.80
2018-06-04T15:13:45.583Z,56.20
2018-06-04T15:16:14.484Z,55.30
2018-06-04T15:18:43.159Z,56.70
2018-06-04T15:21:11.730Z,55.90
2018-06-04T15:23:40.398Z,55.90
2018-06-04T15:26:09.455Z,57.00
2018-06-04T15:28:38.051Z,56.20
2018-06-04T15:31:07.145Z,58.50
2018-06-04T15:33:35.727Z,56.20
2018-06-04T15:36:04.285Z,55.90
2018-06-04T15:38:32.983Z,55.90
2018-06-04T15:41:01.532Z,56.10
2018-06-04T15:43:30.090Z,56.70
2018-06-04T15:45:58.713Z,58.30
2018-06-04T15:48:27.301Z,56.50
2018-06-04T15:50:56.281Z,55.40
2018-06-04T15:53:24.826Z,56.00
2018-06-04T15:55:53.858Z,56.40
2018-06-04T15:58:22.404Z,55.00
2018-06-04T16:00:51.019Z,57.20
2018-06-04T16:03:19.626Z,57.80
2018-06-04T16:05:48.313Z,57.80
2018-06-04T16:08:16.876Z,55.60
2018-06-04T16:10:45.495Z,56.90
2018-06-04T16:13:14.077Z,55.40
2018-06-04T16:15:42.637Z,55.00
2018-06-04T16:18:11.229Z,54.70
2018-06-04T16:20:40.201Z,54.00
2018-06-04T16:23:08.827Z,54.30
2018-06-04T16:25:37.396Z,53.90
2018-06-04T16:28:06.029Z,55.00
2018-06-04T16:30:34.558Z,53.10
2018-06-04T16:33:03.164Z,50.60
2018-06-04T16:35:31.731Z,52.50
2018-06-04T16:38:00.332Z,53.70
2018-06-04T16:40:28.877Z,52.20
2018-06-04T16:42:57.434Z,51.00
2018-06-04T16:45:26.094Z,52.10
2018-06-04T16:47:54.657Z,52.60
2018-06-04T16:50:23.255Z,50.50
2018-06-04T16:52:51.755Z,51.80
2018-06-04T16:55:20.677Z,52.20
2018-06-04T16:57:50.334Z,52.50
2018-06-04T17:00:18.938Z,50.60
2018-06-04T17:02:47.456Z,50.90
2018-06-04T17:05:16.000Z,50.30
2018-06-04T17:07:46.498Z,52.30
2018-06-04T17:10:15.195Z,50.70
2018-06-04T17:12:43.730Z,51.00
2018-06-04T17:15:12.362Z,51.90
2018-06-04T17:17:40.997Z,51.40
2018-06-04T17:20:09.553Z,51.60
2018-06-04T17:22:38.141Z,50.80
2018-06-04T17:25:06.703Z,51.30
2018-06-04T17:27:35.269Z,51.70
2018-06-04T17:30:03.939Z,52.60
2018-06-04T17:32:32.445Z,51.80
2018-06-04T17:35:01.020Z,51.40
2018-06-04T17:37:29.552Z,51.80
2018-06-04T17:39:58.159Z,51.30
2018-06-04T17:42:26.737Z,51.40
2018-06-04T17:44:55.303Z,51.00
2018-06-04T17:47:23.823Z,51.80
2018-06-04T17:49:52.396Z,52.80
2018-06-04T17:52:23.374Z,51.70
2018-06-04T17:54:51.939Z,51.60
2018-06-04T17:57:20.520Z,52.40
2018-06-04T17:59:49.027Z,53.10
2018-06-04T18:02:18.585Z,52.40
2018-06-04T18:04:47.138Z,53.20
2018-06-04T18:07:15.693Z,53.20
2018-06-04T18:09:44.289Z,53.60
2018-06-04T18:12:12.840Z,54.30
2018-06-04T18:14:41.376Z,52.90
2018-06-04T18:17:09.958Z,53.10
2018-06-04T18:19:38.523Z,53.00
2018-06-04T18:24:35.272Z,53.10
2018-06-04T18:27:03.837Z,53.70
2018-06-04T18:29:32.392Z,54.10
2018-06-04T18:32:01.007Z,54.10
2018-06-04T18:34:29.662Z,55.30
2018-06-04T18:36:58.192Z,57.20
2018-06-04T18:39:26.721Z,56.90
2018-06-04T18:41:55.316Z,56.20
2018-06-04T18:44:23.833Z,56.90
2018-06-04T18:46:53.856Z,57.40
2018-06-04T18:49:22.458Z,57.20
2018-06-04T18:51:51.055Z,58.60
2018-06-04T18:54:19.634Z,59.10
2018-06-04T18:56:48.323Z,59.10
2018-06-04T18:59:16.889Z,59.80
2018-06-04T19:01:45.478Z,60.00
2018-06-04T19:04:14.085Z,60.00
2018-06-04T19:06:42.691Z,62.50
2018-06-04T19:09:11.479Z,61.40
2018-06-04T19:11:39.963Z,59.90
2018-06-04T19:14:08.512Z,60.70
2018-06-04T19:16:37.057Z,60.00
2018-06-04T19:19:05.771Z,59.20
2018-06-04T19:21:34.328Z,58.70
2018-06-04T19:24:02.901Z,59.20
2018-06-04T19:26:34.595Z,62.20
2018-06-04T19:29:03.230Z,62.80
2018-06-04T19:31:31.760Z,63.80
2018-06-04T19:34:00.323Z,64.10
2018-06-04T19:36:28.873Z,64.30
2018-06-04T19:38:57.476Z,64.20
2018-06-04T19:41:26.035Z,64.30
2018-06-04T19:43:54.579Z,64.50
2018-06-04T19:46:23.146Z,65.00
2018-06-04T19:48:58.412Z,65.00
2018-06-04T19:51:26.973Z,64.70
2018-06-04T19:53:55.514Z,64.60
2018-06-04T19:56:24.059Z,65.30
2018-06-04T19:58:52.663Z,64.00
2018-06-04T20:01:21.213Z,62.90
2018-06-04T20:03:49.816Z,62.70
2018-06-04T20:06:18.388Z,62.40
2018-06-04T20:08:46.910Z,62.40
2018-06-04T20:11:15.513Z,62.40
2018-06-04T20:13:44.000Z,62.40
2018-06-04T20:16:12.600Z,62.70
2018-06-04T20:18:41.131Z,62.70
2018-06-04T20:21:09.685Z,62.70
2018-06-04T20:23:38.278Z,62.90
2018-06-04T20:26:06.926Z,64.80
2018-06-04T20:28:35.447Z,65.60
2018-06-04T20:31:04.009Z,66.40
2018-06-04T20:33:32.595Z,66.30
2018-06-04T20:36:01.162Z,66.30
2018-06-04T20:38:29.724Z,67.20
2018-06-04T20:40:58.250Z,67.20
2018-06-04T20:43:26.789Z,67.10
2018-06-04T20:45:55.297Z,66.50
2018-06-04T20:48:23.841Z,66.20
2018-06-04T20:50:52.346Z,65.90
2018-06-04T20:53:20.908Z,65.30
2018-06-04T20:55:49.467Z,65.20
2018-06-04T20:58:17.993Z,66.20
2018-06-04T21:00:46.569Z,66.80
2018-06-04T21:03:15.115Z,67.40
2018-06-04T21:05:43.700Z,68.00
2018-06-04T21:08:12.272Z,68.60
2018-06-04T21:10:40.792Z,69.40
2018-06-04T21:13:09.335Z,69.80
2018-06-04T21:15:37.861Z,70.10
2018-06-04T21:18:06.432Z,70.30
2018-06-04T21:20:35.004Z,71.00
2018-06-04T21:23:03.552Z,70.50
2018-06-04T21:25:32.103Z,72.50
2018-06-04T21:28:00.603Z,72.30
2018-06-04T21:30:29.175Z,73.00
2018-06-04T21:32:57.684Z,73.10
2018-06-04T21:35:26.186Z,73.30
2018-06-04T21:37:54.743Z,73.70
2018-06-04T21:40:23.307Z,74.50
2018-06-04T21:42:52.013Z,75.60
2018-06-04T21:45:20.569Z,76.80
2018-06-04T21:47:49.116Z,77.70
2018-06-04T21:50:17.645Z,77.90
2018-06-04T21:52:46.413Z,78.20
2018-06-04T21:55:14.952Z,79.10
2018-06-04T21:57:43.512Z,79.80
2018-06-04T22:00:12.053Z,80.40
2018-06-04T22:02:40.585Z,80.20
2018-06-04T22:05:09.119Z,80.80
2018-06-04T22:07:37.673Z,82.40
2018-06-04T22:10:06.786Z,83.90
2018-06-04T22:12:35.361Z,86.00
2018-06-04T22:15:03.995Z,86.40
2018-06-04T22:17:32.620Z,87.20
2018-06-04T22:20:01.183Z,87.40
2018-06-04T22:22:29.729Z,88.30
2018-06-04T22:24:58.270Z,88.70
2018-06-04T22:27:26.890Z,89.60
2018-06-04T22:29:55.418Z,90.40
2018-06-04T22:32:23.982Z,90.50
2018-06-04T22:34:52.508Z,90.80
2018-06-04T22:37:21.034Z,91.10
2018-06-04T22:39:49.572Z,91.50
2018-06-04T22:42:18.087Z,91.60
2018-06-04T22:44:46.659Z,92.20
2018-06-04T22:47:15.246Z,92.70
2018-06-04T22:49:43.764Z,92.90
2018-06-04T22:52:12.332Z,93.10
2018-06-04T22:54:40.888Z,93.60
2018-06-04T22:57:09.453Z,93.60
2018-06-04T22:59:37.973Z,94.00
2018-06-04T23:02:06.506Z,94.60
2018-06-04T23:04:35.069Z,94.80
2018-06-04T23:07:03.637Z,95.00
2018-06-04T23:09:32.233Z,95.90
2018-06-04T23:12:00.760Z,96.70
2018-06-04T23:14:29.314Z,96.80
2018-06-04T23:16:57.900Z,97.40
2018-06-04T23:19:26.483Z,98.50
2018-06-04T23:21:55.034Z,98.60
2018-06-04T23:24:23.633Z,98.20
2018-06-04T23:26:52.132Z,98.40
2018-06-04T23:29:20.660Z,99.70
2018-06-04T23:31:49.170Z,99.90
2018-06-04T23:34:17.705Z,99.90
2018-06-04T23:36:46.209Z,99.90
2018-06-04T23:39:14.772Z,99.90
2018-06-04T23:41:43.349Z,99.90
2018-06-04T23:44:11.944Z,99.90
2018-06-04T23:46:40.476Z,99.90
2018-06-04T23:49:08.962Z,99.90
2018-06-04T23:51:37.497Z,99.90
2018-06-04T23:54:06.090Z,99.90
2018-06-04T23:56:34.610Z,99.90
2018-06-04T23:59:03.208Z,99.90
